sensor_id;sensor_type;location;lat;lon;timestamp;temperature;humidity
12477;DHT22;6303;51.504;6.300;2023-04-03T00:02:08;20.20;50.60
12477;DHT22;6303;51.504;6.300;2023-04-03T00:04:35;20.20;50.70
12477;DHT22;6303;51.504;6.300;2023-04-03T00:07:02;20.20;50.70
12477;DHT22;6303;51.504;6.300;2023-04-03T00:09:31;20.20;50.70
12477;DHT22;6303;51.504;6.300;2023-04-03T00:11:58;20.10;50.80
12477;DHT22;6303;51.504;6.300;2023-04-03T00:14:26;20.10;50.80
12477;DHT22;6303;51.504;6.300;2023-04-03T00:16:53;20.10;50.80
12477;DHT22;6303;51.504;6.300;2023-04-03T00:19:20;20.10;51.00
12477;DHT22;6303;51.504;6.300;2023-04-03T00:21:47;20.10;51.00
12477;DHT22;6303;51.504;6.300;2023-04-03T00:24:14;20.10;51.00
12477;DHT22;6303;51.504;6.300;2023-04-03T00:26:43;20.10;51.00
12477;DHT22;6303;51.504;6.300;2023-04-03T00:29:10;20.10;50.90
12477;DHT22;6303;51.504;6.300;2023-04-03T00:31:37;20.10;51.00
12477;DHT22;6303;51.504;6.300;2023-04-03T00:34:04;20.10;50.90
12477;DHT22;6303;51.504;6.300;2023-04-03T00:36:31;20.10;51.00
12477;DHT22;6303;51.504;6.300;2023-04-03T00:38:58;20.10;51.00
12477;DHT22;6303;51.504;6.300;2023-04-03T00:41:25;20.00;51.00
12477;DHT22;6303;51.504;6.300;2023-04-03T00:43:54;20.00;51.00
12477;DHT22;6303;51.504;6.300;2023-04-03T00:46:21;20.00;51.10
12477;DHT22;6303;51.504;6.300;2023-04-03T00:48:49;20.10;51.10
12477;DHT22;6303;51.504;6.300;2023-04-03T00:51:19;20.10;51.00
12477;DHT22;6303;51.504;6.300;2023-04-03T00:53:48;20.00;51.00
12477;DHT22;6303;51.504;6.300;2023-04-03T00:56:18;20.00;51.00
12477;DHT22;6303;51.504;6.300;2023-04-03T00:58:49;20.00;50.90
12477;DHT22;6303;51.504;6.300;2023-04-03T01:01:21;20.00;51.00
12477;DHT22;6303;51.504;6.300;2023-04-03T01:03:50;20.00;51.00
12477;DHT22;6303;51.504;6.300;2023-04-03T01:06:21;20.00;50.90
12477;DHT22;6303;51.504;6.300;2023-04-03T01:08:50;20.00;50.90
12477;DHT22;6303;51.504;6.300;2023-04-03T01:11:18;20.00;50.90
12477;DHT22;6303;51.504;6.300;2023-04-03T01:13:47;20.00;50.90
12477;DHT22;6303;51.504;6.300;2023-04-03T01:16:15;20.10;50.90
12477;DHT22;6303;51.504;6.300;2023-04-03T01:18:44;20.10;50.70
12477;DHT22;6303;51.504;6.300;2023-04-03T01:21:45;20.10;50.70
12477;DHT22;6303;51.504;6.300;2023-04-03T01:24:30;20.10;50.60
12477;DHT22;6303;51.504;6.300;2023-04-03T01:26:58;20.10;50.60
12477;DHT22;6303;51.504;6.300;2023-04-03T01:29:25;20.10;50.50
12477;DHT22;6303;51.504;6.300;2023-04-03T01:31:55;20.10;50.50
12477;DHT22;6303;51.504;6.300;2023-04-03T01:34:23;20.10;50.50
12477;DHT22;6303;51.504;6.300;2023-04-03T01:36:52;20.10;50.50
12477;DHT22;6303;51.504;6.300;2023-04-03T01:39:20;20.10;50.50
12477;DHT22;6303;51.504;6.300;2023-04-03T01:41:48;20.10;50.50
12477;DHT22;6303;51.504;6.300;2023-04-03T01:44:30;20.10;50.50
12477;DHT22;6303;51.504;6.300;2023-04-03T01:46:58;20.10;50.50
12477;DHT22;6303;51.504;6.300;2023-04-03T01:49:27;20.10;50.60
12477;DHT22;6303;51.504;6.300;2023-04-03T01:51:55;20.10;50.60
12477;DHT22;6303;51.504;6.300;2023-04-03T01:54:22;20.10;50.50
12477;DHT22;6303;51.504;6.300;2023-04-03T01:56:49;20.10;50.50
12477;DHT22;6303;51.504;6.300;2023-04-03T01:59:17;20.00;50.50
12477;DHT22;6303;51.504;6.300;2023-04-03T02:01:45;19.20;50.30
12477;DHT22;6303;51.504;6.300;2023-04-03T02:04:14;20.00;50.70
12477;DHT22;6303;51.504;6.300;2023-04-03T02:06:41;20.00;50.60
12477;DHT22;6303;51.504;6.300;2023-04-03T02:09:08;20.00;50.50
12477;DHT22;6303;51.504;6.300;2023-04-03T02:11:35;20.00;50.60
12477;DHT22;6303;51.504;6.300;2023-04-03T02:14:02;20.00;50.60
12477;DHT22;6303;51.504;6.300;2023-04-03T02:16:29;20.00;50.70
12477;DHT22;6303;51.504;6.300;2023-04-03T02:18:56;20.00;50.70
12477;DHT22;6303;51.504;6.300;2023-04-03T02:21:25;20.00;50.70
12477;DHT22;6303;51.504;6.300;2023-04-03T02:23:53;19.90;50.90
12477;DHT22;6303;51.504;6.300;2023-04-03T02:26:20;19.90;50.90
12477;DHT22;6303;51.504;6.300;2023-04-03T02:28:47;20.00;50.80
12477;DHT22;6303;51.504;6.300;2023-04-03T02:31:14;20.00;50.70
12477;DHT22;6303;51.504;6.300;2023-04-03T02:33:44;20.00;50.70
12477;DHT22;6303;51.504;6.300;2023-04-03T02:36:13;20.00;50.60
12477;DHT22;6303;51.504;6.300;2023-04-03T02:38:45;20.00;50.60
12477;DHT22;6303;51.504;6.300;2023-04-03T02:41:12;20.00;50.60
12477;DHT22;6303;51.504;6.300;2023-04-03T02:43:40;20.00;50.60
12477;DHT22;6303;51.504;6.300;2023-04-03T02:46:07;20.00;50.70
12477;DHT22;6303;51.504;6.300;2023-04-03T02:48:36;20.00;50.80
12477;DHT22;6303;51.504;6.300;2023-04-03T02:51:04;20.00;50.70
12477;DHT22;6303;51.504;6.300;2023-04-03T02:53:31;20.00;50.70
12477;DHT22;6303;51.504;6.300;2023-04-03T02:56:05;19.90;50.60
12477;DHT22;6303;51.504;6.300;2023-04-03T02:58:32;19.90;50.80
12477;DHT22;6303;51.504;6.300;2023-04-03T03:01:01;19.90;50.70
12477;DHT22;6303;51.504;6.300;2023-04-03T03:03:28;19.90;50.60
12477;DHT22;6303;51.504;6.300;2023-04-03T03:06:02;20.00;50.60
12477;DHT22;6303;51.504;6.300;2023-04-03T03:08:29;20.00;50.60
12477;DHT22;6303;51.504;6.300;2023-04-03T03:10:56;19.90;50.60
12477;DHT22;6303;51.504;6.300;2023-04-03T03:13:25;19.90;50.70
12477;DHT22;6303;51.504;6.300;2023-04-03T03:15:52;20.00;50.60
12477;DHT22;6303;51.504;6.300;2023-04-03T03:18:19;19.90;50.80
12477;DHT22;6303;51.504;6.300;2023-04-03T03:20:51;19.90;50.70
12477;DHT22;6303;51.504;6.300;2023-04-03T03:23:19;19.90;50.60
12477;DHT22;6303;51.504;6.300;2023-04-03T03:25:46;19.90;50.70
12477;DHT22;6303;51.504;6.300;2023-04-03T03:28:13;19.90;50.70
12477;DHT22;6303;51.504;6.300;2023-04-03T03:30:42;19.90;50.60
12477;DHT22;6303;51.504;6.300;2023-04-03T03:33:09;19.90;50.60
12477;DHT22;6303;51.504;6.300;2023-04-03T03:35:36;20.00;50.60
12477;DHT22;6303;51.504;6.300;2023-04-03T03:38:03;19.90;50.50
12477;DHT22;6303;51.504;6.300;2023-04-03T03:40:31;19.90;50.80
12477;DHT22;6303;51.504;6.300;2023-04-03T03:42:58;19.90;50.60
12477;DHT22;6303;51.504;6.300;2023-04-03T03:45:25;19.80;50.70
12477;DHT22;6303;51.504;6.300;2023-04-03T03:47:54;19.80;50.70
12477;DHT22;6303;51.504;6.300;2023-04-03T03:50:21;19.80;50.70
12477;DHT22;6303;51.504;6.300;2023-04-03T03:52:49;19.80;50.80
12477;DHT22;6303;51.504;6.300;2023-04-03T03:55:17;19.80;50.60
12477;DHT22;6303;51.504;6.300;2023-04-03T03:57:47;19.90;50.50
12477;DHT22;6303;51.504;6.300;2023-04-03T04:00:15;19.90;50.40
12477;DHT22;6303;51.504;6.300;2023-04-03T04:02:45;19.90;50.30
12477;DHT22;6303;51.504;6.300;2023-04-03T04:05:18;19.90;50.20
12477;DHT22;6303;51.504;6.300;2023-04-03T04:07:45;19.90;50.30
12477;DHT22;6303;51.504;6.300;2023-04-03T04:10:12;19.90;50.30
12477;DHT22;6303;51.504;6.300;2023-04-03T04:12:40;19.90;50.40
12477;DHT22;6303;51.504;6.300;2023-04-03T04:15:08;19.80;50.40
12477;DHT22;6303;51.504;6.300;2023-04-03T04:17:36;19.80;50.40
12477;DHT22;6303;51.504;6.300;2023-04-03T04:20:06;19.80;50.40
12477;DHT22;6303;51.504;6.300;2023-04-03T04:22:36;19.80;50.60
12477;DHT22;6303;51.504;6.300;2023-04-03T04:25:06;19.70;50.60
12477;DHT22;6303;51.504;6.300;2023-04-03T04:27:34;19.70;50.70
12477;DHT22;6303;51.504;6.300;2023-04-03T04:30:03;19.70;50.70
12477;DHT22;6303;51.504;6.300;2023-04-03T04:32:31;19.80;50.60
12477;DHT22;6303;51.504;6.300;2023-04-03T04:34:59;19.80;50.30
12477;DHT22;6303;51.504;6.300;2023-04-03T04:37:28;19.80;50.30
12477;DHT22;6303;51.504;6.300;2023-04-03T04:39:57;19.80;50.60
12477;DHT22;6303;51.504;6.300;2023-04-03T04:42:25;19.80;50.60
12477;DHT22;6303;51.504;6.300;2023-04-03T04:44:52;19.80;50.60
12477;DHT22;6303;51.504;6.300;2023-04-03T04:47:19;19.80;50.40
12477;DHT22;6303;51.504;6.300;2023-04-03T04:49:46;19.80;50.30
12477;DHT22;6303;51.504;6.300;2023-04-03T04:52:14;19.80;50.30
12477;DHT22;6303;51.504;6.300;2023-04-03T04:54:41;19.90;50.30
12477;DHT22;6303;51.504;6.300;2023-04-03T04:57:11;19.90;50.30
12477;DHT22;6303;51.504;6.300;2023-04-03T04:59:38;19.80;50.30
12477;DHT22;6303;51.504;6.300;2023-04-03T05:02:07;19.80;50.30
12477;DHT22;6303;51.504;6.300;2023-04-03T05:04:35;19.90;50.30
12477;DHT22;6303;51.504;6.300;2023-04-03T05:07:08;19.90;50.20
12477;DHT22;6303;51.504;6.300;2023-04-03T05:09:37;19.90;50.20
12477;DHT22;6303;51.504;6.300;2023-04-03T05:12:05;19.90;50.10
12477;DHT22;6303;51.504;6.300;2023-04-03T05:14:40;19.90;50.10
12477;DHT22;6303;51.504;6.300;2023-04-03T05:17:09;19.90;50.10
12477;DHT22;6303;51.504;6.300;2023-04-03T05:19:39;19.80;50.10
12477;DHT22;6303;51.504;6.300;2023-04-03T05:22:08;19.80;50.30
12477;DHT22;6303;51.504;6.300;2023-04-03T05:24:35;20.20;50.50
12477;DHT22;6303;51.504;6.300;2023-04-03T05:27:04;19.80;50.40
12477;DHT22;6303;51.504;6.300;2023-04-03T05:29:34;19.70;50.40
12477;DHT22;6303;51.504;6.300;2023-04-03T05:32:04;19.70;50.40
12477;DHT22;6303;51.504;6.300;2023-04-03T05:34:31;19.80;50.40
12477;DHT22;6303;51.504;6.300;2023-04-03T05:36:59;19.80;50.30
12477;DHT22;6303;51.504;6.300;2023-04-03T05:39:29;19.90;50.20
12477;DHT22;6303;51.504;6.300;2023-04-03T05:41:57;19.90;50.00
12477;DHT22;6303;51.504;6.300;2023-04-03T05:44:25;20.00;49.80
12477;DHT22;6303;51.504;6.300;2023-04-03T05:46:53;20.00;49.70
12477;DHT22;6303;51.504;6.300;2023-04-03T05:49:22;20.10;49.70
12477;DHT22;6303;51.504;6.300;2023-04-03T05:51:49;20.10;49.60
12477;DHT22;6303;51.504;6.300;2023-04-03T05:54:25;20.10;49.40
12477;DHT22;6303;51.504;6.300;2023-04-03T05:56:56;20.30;49.20
12477;DHT22;6303;51.504;6.300;2023-04-03T05:59:25;20.30;49.10
12477;DHT22;6303;51.504;6.300;2023-04-03T06:01:55;20.40;49.10
12477;DHT22;6303;51.504;6.300;2023-04-03T06:04:25;20.40;49.00
12477;DHT22;6303;51.504;6.300;2023-04-03T06:06:53;20.40;49.00
12477;DHT22;6303;51.504;6.300;2023-04-03T06:09:21;20.40;49.00
12477;DHT22;6303;51.504;6.300;2023-04-03T06:11:51;20.40;48.70
12477;DHT22;6303;51.504;6.300;2023-04-03T06:14:20;20.40;48.90
12477;DHT22;6303;51.504;6.300;2023-04-03T06:16:47;20.40;49.00
12477;DHT22;6303;51.504;6.300;2023-04-03T06:19:15;20.50;49.00
12477;DHT22;6303;51.504;6.300;2023-04-03T06:21:48;20.50;48.80
12477;DHT22;6303;51.504;6.300;2023-04-03T06:24:17;20.70;48.70
12477;DHT22;6303;51.504;6.300;2023-04-03T06:26:45;20.80;48.60
12477;DHT22;6303;51.504;6.300;2023-04-03T06:29:12;20.90;48.40
12477;DHT22;6303;51.504;6.300;2023-04-03T06:31:39;21.00;48.30
12477;DHT22;6303;51.504;6.300;2023-04-03T06:34:06;21.00;48.10
12477;DHT22;6303;51.504;6.300;2023-04-03T06:36:34;21.20;47.90
12477;DHT22;6303;51.504;6.300;2023-04-03T06:39:02;21.20;47.80
12477;DHT22;6303;51.504;6.300;2023-04-03T06:41:29;21.30;47.50
12477;DHT22;6303;51.504;6.300;2023-04-03T06:43:57;21.40;47.50
12477;DHT22;6303;51.504;6.300;2023-04-03T06:46:26;21.50;47.30
12477;DHT22;6303;51.504;6.300;2023-04-03T06:48:53;21.60;47.20
12477;DHT22;6303;51.504;6.300;2023-04-03T06:51:23;21.60;46.90
12477;DHT22;6303;51.504;6.300;2023-04-03T06:53:51;21.70;46.90
12477;DHT22;6303;51.504;6.300;2023-04-03T06:56:20;21.70;46.80
12477;DHT22;6303;51.504;6.300;2023-04-03T06:58:48;21.80;46.80
12477;DHT22;6303;51.504;6.300;2023-04-03T07:01:16;21.90;46.50
12477;DHT22;6303;51.504;6.300;2023-04-03T07:03:45;21.60;46.30
12477;DHT22;6303;51.504;6.300;2023-04-03T07:06:15;22.00;46.40
12477;DHT22;6303;51.504;6.300;2023-04-03T07:08:42;22.00;46.30
12477;DHT22;6303;51.504;6.300;2023-04-03T07:11:10;22.10;46.10
12477;DHT22;6303;51.504;6.300;2023-04-03T07:13:39;22.10;46.00
12477;DHT22;6303;51.504;6.300;2023-04-03T07:16:07;22.20;46.00
12477;DHT22;6303;51.504;6.300;2023-04-03T07:18:35;22.20;45.90
12477;DHT22;6303;51.504;6.300;2023-04-03T07:21:02;22.30;45.70
12477;DHT22;6303;51.504;6.300;2023-04-03T07:23:30;22.30;45.70
12477;DHT22;6303;51.504;6.300;2023-04-03T07:25:57;22.40;45.50
12477;DHT22;6303;51.504;6.300;2023-04-03T07:28:24;22.40;45.40
12477;DHT22;6303;51.504;6.300;2023-04-03T07:30:59;22.50;45.40
12477;DHT22;6303;51.504;6.300;2023-04-03T07:33:26;22.50;45.30
12477;DHT22;6303;51.504;6.300;2023-04-03T07:35:54;22.60;45.30
12477;DHT22;6303;51.504;6.300;2023-04-03T07:38:21;22.60;45.20
12477;DHT22;6303;51.504;6.300;2023-04-03T07:40:50;22.60;45.00
12477;DHT22;6303;51.504;6.300;2023-04-03T07:43:19;22.70;45.00
12477;DHT22;6303;51.504;6.300;2023-04-03T07:45:47;22.80;44.80
12477;DHT22;6303;51.504;6.300;2023-04-03T07:48:19;22.80;44.80
12477;DHT22;6303;51.504;6.300;2023-04-03T07:50:46;22.80;44.70
12477;DHT22;6303;51.504;6.300;2023-04-03T07:53:13;22.70;44.50
12477;DHT22;6303;51.504;6.300;2023-04-03T07:55:41;22.90;44.40
12477;DHT22;6303;51.504;6.300;2023-04-03T07:58:10;23.00;44.40
12477;DHT22;6303;51.504;6.300;2023-04-03T08:00:37;23.00;44.30
12477;DHT22;6303;51.504;6.300;2023-04-03T08:03:05;23.10;44.20
12477;DHT22;6303;51.504;6.300;2023-04-03T08:05:36;23.20;44.10
12477;DHT22;6303;51.504;6.300;2023-04-03T08:08:04;23.20;44.10
12477;DHT22;6303;51.504;6.300;2023-04-03T08:10:31;23.20;43.90
12477;DHT22;6303;51.504;6.300;2023-04-03T08:12:59;23.30;43.80
12477;DHT22;6303;51.504;6.300;2023-04-03T08:15:26;23.30;43.70
12477;DHT22;6303;51.504;6.300;2023-04-03T08:17:53;23.30;44.30
12477;DHT22;6303;51.504;6.300;2023-04-03T08:20:21;23.40;43.60
12477;DHT22;6303;51.504;6.300;2023-04-03T08:22:49;23.40;43.50
12477;DHT22;6303;51.504;6.300;2023-04-03T08:25:16;23.40;43.50
12477;DHT22;6303;51.504;6.300;2023-04-03T08:27:44;23.40;43.40
12477;DHT22;6303;51.504;6.300;2023-04-03T08:30:12;23.50;43.40
12477;DHT22;6303;51.504;6.300;2023-04-03T08:32:39;23.50;43.40
12477;DHT22;6303;51.504;6.300;2023-04-03T08:35:08;23.60;43.30
12477;DHT22;6303;51.504;6.300;2023-04-03T08:37:35;23.60;43.20
12477;DHT22;6303;51.504;6.300;2023-04-03T08:40:05;23.60;43.10
12477;DHT22;6303;51.504;6.300;2023-04-03T08:42:41;23.70;43.10
12477;DHT22;6303;51.504;6.300;2023-04-03T08:45:15;23.70;43.00
12477;DHT22;6303;51.504;6.300;2023-04-03T08:47:46;23.70;42.90
12477;DHT22;6303;51.504;6.300;2023-04-03T08:50:16;23.80;42.90
12477;DHT22;6303;51.504;6.300;2023-04-03T08:52:45;23.80;42.90
12477;DHT22;6303;51.504;6.300;2023-04-03T08:55:22;23.80;42.80
12477;DHT22;6303;51.504;6.300;2023-04-03T08:57:53;23.90;42.80
12477;DHT22;6303;51.504;6.300;2023-04-03T09:00:26;23.90;43.30
12477;DHT22;6303;51.504;6.300;2023-04-03T09:02:55;23.90;42.60
12477;DHT22;6303;51.504;6.300;2023-04-03T09:05:32;23.90;42.50
12477;DHT22;6303;51.504;6.300;2023-04-03T09:08:07;24.00;43.30
12477;DHT22;6303;51.504;6.300;2023-04-03T09:10:40;24.00;42.50
12477;DHT22;6303;51.504;6.300;2023-04-03T09:13:13;24.00;42.50
12477;DHT22;6303;51.504;6.300;2023-04-03T09:15:46;24.00;42.40
12477;DHT22;6303;51.504;6.300;2023-04-03T09:18:16;24.10;42.40
12477;DHT22;6303;51.504;6.300;2023-04-03T09:20:54;24.10;42.40
12477;DHT22;6303;51.504;6.300;2023-04-03T09:23:28;24.10;42.30
12477;DHT22;6303;51.504;6.300;2023-04-03T09:26:02;24.10;42.20
12477;DHT22;6303;51.504;6.300;2023-04-03T09:28:32;24.10;42.10
12477;DHT22;6303;51.504;6.300;2023-04-03T09:31:00;24.20;42.20
12477;DHT22;6303;51.504;6.300;2023-04-03T09:33:30;24.20;42.10
12477;DHT22;6303;51.504;6.300;2023-04-03T09:35:57;24.20;42.00
12477;DHT22;6303;51.504;6.300;2023-04-03T09:38:24;24.20;41.90
12477;DHT22;6303;51.504;6.300;2023-04-03T09:41:05;24.30;41.90
12477;DHT22;6303;51.504;6.300;2023-04-03T09:43:34;24.30;41.80
12477;DHT22;6303;51.504;6.300;2023-04-03T09:46:32;24.30;41.60
12477;DHT22;6303;51.504;6.300;2023-04-03T09:49:01;24.30;41.60
12477;DHT22;6303;51.504;6.300;2023-04-03T09:51:29;24.40;41.50
12477;DHT22;6303;51.504;6.300;2023-04-03T09:53:57;24.40;41.40
12477;DHT22;6303;51.504;6.300;2023-04-03T09:56:27;24.40;41.30
12477;DHT22;6303;51.504;6.300;2023-04-03T09:59:08;24.40;41.20
12477;DHT22;6303;51.504;6.300;2023-04-03T10:01:43;24.40;41.10
12477;DHT22;6303;51.504;6.300;2023-04-03T10:04:23;24.50;41.00
12477;DHT22;6303;51.504;6.300;2023-04-03T10:06:52;24.40;40.90
12477;DHT22;6303;51.504;6.300;2023-04-03T10:09:22;24.50;40.80
12477;DHT22;6303;51.504;6.300;2023-04-03T10:12:05;24.50;40.80
12477;DHT22;6303;51.504;6.300;2023-04-03T10:14:34;24.50;40.70
12477;DHT22;6303;51.504;6.300;2023-04-03T10:17:15;24.50;40.60
12477;DHT22;6303;51.504;6.300;2023-04-03T10:19:48;24.50;40.60
12477;DHT22;6303;51.504;6.300;2023-04-03T10:22:21;24.60;40.50
12477;DHT22;6303;51.504;6.300;2023-04-03T10:25:01;24.60;40.50
12477;DHT22;6303;51.504;6.300;2023-04-03T10:27:47;24.60;40.40
12477;DHT22;6303;51.504;6.300;2023-04-03T10:30:33;24.60;40.30
12477;DHT22;6303;51.504;6.300;2023-04-03T10:33:16;24.60;40.30
12477;DHT22;6303;51.504;6.300;2023-04-03T10:35:51;24.60;40.20
12477;DHT22;6303;51.504;6.300;2023-04-03T10:38:30;24.60;40.20
12477;DHT22;6303;51.504;6.300;2023-04-03T10:41:04;24.60;40.20
12477;DHT22;6303;51.504;6.300;2023-04-03T10:43:41;24.60;40.10
12477;DHT22;6303;51.504;6.300;2023-04-03T10:46:12;24.60;40.00
12477;DHT22;6303;51.504;6.300;2023-04-03T10:48:56;24.60;40.00
12477;DHT22;6303;51.504;6.300;2023-04-03T10:51:30;24.70;40.00
12477;DHT22;6303;51.504;6.300;2023-04-03T10:54:03;24.70;39.90
12477;DHT22;6303;51.504;6.300;2023-04-03T10:56:36;24.70;39.80
12477;DHT22;6303;51.504;6.300;2023-04-03T10:59:15;24.70;39.70
12477;DHT22;6303;51.504;6.300;2023-04-03T11:01:45;24.70;39.60
12477;DHT22;6303;51.504;6.300;2023-04-03T11:04:13;24.80;39.50
12477;DHT22;6303;51.504;6.300;2023-04-03T11:06:44;24.80;39.40
12477;DHT22;6303;51.504;6.300;2023-04-03T11:09:19;24.80;39.30
12477;DHT22;6303;51.504;6.300;2023-04-03T11:11:51;24.80;39.30
12477;DHT22;6303;51.504;6.300;2023-04-03T11:14:26;24.80;39.20
12477;DHT22;6303;51.504;6.300;2023-04-03T11:17:02;24.80;39.10
12477;DHT22;6303;51.504;6.300;2023-04-03T11:19:35;24.80;39.20
12477;DHT22;6303;51.504;6.300;2023-04-03T11:22:09;24.80;39.10
12477;DHT22;6303;51.504;6.300;2023-04-03T11:24:41;24.80;39.10
12477;DHT22;6303;51.504;6.300;2023-04-03T11:27:13;24.80;39.10
12477;DHT22;6303;51.504;6.300;2023-04-03T11:29:45;24.80;39.10
12477;DHT22;6303;51.504;6.300;2023-04-03T11:32:27;24.80;39.00
12477;DHT22;6303;51.504;6.300;2023-04-03T11:35:00;24.80;38.90
12477;DHT22;6303;51.504;6.300;2023-04-03T11:37:31;24.80;38.80
12477;DHT22;6303;51.504;6.300;2023-04-03T11:40:04;24.80;38.80
12477;DHT22;6303;51.504;6.300;2023-04-03T11:42:35;24.80;38.80
12477;DHT22;6303;51.504;6.300;2023-04-03T11:45:31;24.80;38.70
12477;DHT22;6303;51.504;6.300;2023-04-03T11:48:01;24.70;38.70
12477;DHT22;6303;51.504;6.300;2023-04-03T11:50:45;24.80;38.70
12477;DHT22;6303;51.504;6.300;2023-04-03T11:53:33;24.70;38.60
12477;DHT22;6303;51.504;6.300;2023-04-03T11:56:29;24.70;38.70
12477;DHT22;6303;51.504;6.300;2023-04-03T11:59:21;24.70;38.70
12477;DHT22;6303;51.504;6.300;2023-04-03T12:01:51;24.70;38.70
12477;DHT22;6303;51.504;6.300;2023-04-03T12:04:20;24.60;38.70
12477;DHT22;6303;51.504;6.300;2023-04-03T12:06:58;24.60;38.70
12477;DHT22;6303;51.504;6.300;2023-04-03T12:09:33;24.60;38.70
12477;DHT22;6303;51.504;6.300;2023-04-03T12:14:43;24.60;38.70
12477;DHT22;6303;51.504;6.300;2023-04-03T12:17:22;24.50;38.80
12477;DHT22;6303;51.504;6.300;2023-04-03T12:19:50;24.60;38.80
12477;DHT22;6303;51.504;6.300;2023-04-03T12:22:18;24.50;38.70
12477;DHT22;6303;51.504;6.300;2023-04-03T12:24:47;24.50;38.80
12477;DHT22;6303;51.504;6.300;2023-04-03T12:27:34;24.50;38.80
12477;DHT22;6303;51.504;6.300;2023-04-03T12:30:17;24.40;38.80
12477;DHT22;6303;51.504;6.300;2023-04-03T12:33:02;24.40;38.80
12477;DHT22;6303;51.504;6.300;2023-04-03T12:35:35;24.40;38.90
12477;DHT22;6303;51.504;6.300;2023-04-03T12:38:25;24.40;38.90
12477;DHT22;6303;51.504;6.300;2023-04-03T12:40:58;24.30;38.90
12477;DHT22;6303;51.504;6.300;2023-04-03T12:43:40;24.30;39.00
12477;DHT22;6303;51.504;6.300;2023-04-03T12:46:13;24.20;39.00
12477;DHT22;6303;51.504;6.300;2023-04-03T12:48:50;24.20;39.00
12477;DHT22;6303;51.504;6.300;2023-04-03T12:51:22;24.20;39.10
12477;DHT22;6303;51.504;6.300;2023-04-03T12:53:56;24.10;39.10
12477;DHT22;6303;51.504;6.300;2023-04-03T12:56:25;24.10;39.00
12477;DHT22;6303;51.504;6.300;2023-04-03T12:58:54;24.10;39.10
12477;DHT22;6303;51.504;6.300;2023-04-03T13:01:25;24.00;39.10
12477;DHT22;6303;51.504;6.300;2023-04-03T13:03:55;24.00;39.20
12477;DHT22;6303;51.504;6.300;2023-04-03T13:06:26;23.90;39.30
12477;DHT22;6303;51.504;6.300;2023-04-03T13:08:55;23.90;39.30
12477;DHT22;6303;51.504;6.300;2023-04-03T13:11:24;23.80;39.30
12477;DHT22;6303;51.504;6.300;2023-04-03T13:13:57;23.80;39.40
12477;DHT22;6303;51.504;6.300;2023-04-03T13:16:24;23.70;39.50
12477;DHT22;6303;51.504;6.300;2023-04-03T13:18:54;23.70;39.50
12477;DHT22;6303;51.504;6.300;2023-04-03T13:21:23;23.70;39.60
12477;DHT22;6303;51.504;6.300;2023-04-03T13:23:53;23.60;39.60
12477;DHT22;6303;51.504;6.300;2023-04-03T13:26:23;23.60;39.70
12477;DHT22;6303;51.504;6.300;2023-04-03T13:28:52;23.60;39.70
12477;DHT22;6303;51.504;6.300;2023-04-03T13:31:23;23.60;39.80
12477;DHT22;6303;51.504;6.300;2023-04-03T13:33:59;23.50;39.80
12477;DHT22;6303;51.504;6.300;2023-04-03T13:36:31;23.50;39.90
12477;DHT22;6303;51.504;6.300;2023-04-03T13:39:02;23.50;39.90
12477;DHT22;6303;51.504;6.300;2023-04-03T13:41:32;23.40;40.00
12477;DHT22;6303;51.504;6.300;2023-04-03T13:44:16;23.40;40.00
12477;DHT22;6303;51.504;6.300;2023-04-03T13:46:44;23.40;40.00
12477;DHT22;6303;51.504;6.300;2023-04-03T13:49:21;23.40;40.00
12477;DHT22;6303;51.504;6.300;2023-04-03T13:51:48;23.30;40.10
12477;DHT22;6303;51.504;6.300;2023-04-03T13:54:20;23.30;40.20
12477;DHT22;6303;51.504;6.300;2023-04-03T13:56:53;23.30;40.30
12477;DHT22;6303;51.504;6.300;2023-04-03T13:59:23;23.30;40.30
12477;DHT22;6303;51.504;6.300;2023-04-03T14:01:53;23.30;40.30
12477;DHT22;6303;51.504;6.300;2023-04-03T14:04:24;23.20;40.30
12477;DHT22;6303;51.504;6.300;2023-04-03T14:06:52;23.20;40.40
12477;DHT22;6303;51.504;6.300;2023-04-03T14:09:21;23.10;40.50
12477;DHT22;6303;51.504;6.300;2023-04-03T14:11:50;23.10;40.60
12477;DHT22;6303;51.504;6.300;2023-04-03T14:14:21;23.10;40.60
12477;DHT22;6303;51.504;6.300;2023-04-03T14:16:52;23.10;40.60
12477;DHT22;6303;51.504;6.300;2023-04-03T14:19:24;23.00;40.60
12477;DHT22;6303;51.504;6.300;2023-04-03T14:21:53;23.00;40.70
12477;DHT22;6303;51.504;6.300;2023-04-03T14:24:20;23.00;40.70
12477;DHT22;6303;51.504;6.300;2023-04-03T14:26:48;23.00;40.80
12477;DHT22;6303;51.504;6.300;2023-04-03T14:29:16;22.90;40.70
12477;DHT22;6303;51.504;6.300;2023-04-03T14:31:44;22.90;40.80
12477;DHT22;6303;51.504;6.300;2023-04-03T14:34:11;22.90;40.80
12477;DHT22;6303;51.504;6.300;2023-04-03T14:36:42;22.90;40.80
12477;DHT22;6303;51.504;6.300;2023-04-03T14:39:11;22.80;40.90
12477;DHT22;6303;51.504;6.300;2023-04-03T14:41:43;22.80;40.90
12477;DHT22;6303;51.504;6.300;2023-04-03T14:44:10;22.80;40.90
12477;DHT22;6303;51.504;6.300;2023-04-03T14:46:39;22.80;40.90
12477;DHT22;6303;51.504;6.300;2023-04-03T14:49:13;22.80;40.90
12477;DHT22;6303;51.504;6.300;2023-04-03T14:51:42;22.80;40.90
12477;DHT22;6303;51.504;6.300;2023-04-03T14:54:13;22.70;40.80
12477;DHT22;6303;51.504;6.300;2023-04-03T14:56:41;22.70;40.90
12477;DHT22;6303;51.504;6.300;2023-04-03T14:59:11;22.70;40.90
12477;DHT22;6303;51.504;6.300;2023-04-03T15:01:39;22.70;40.90
12477;DHT22;6303;51.504;6.300;2023-04-03T15:04:10;22.60;40.80
12477;DHT22;6303;51.504;6.300;2023-04-03T15:06:38;22.60;40.80
12477;DHT22;6303;51.504;6.300;2023-04-03T15:09:13;22.60;40.80
12477;DHT22;6303;51.504;6.300;2023-04-03T15:11:44;22.60;40.80
12477;DHT22;6303;51.504;6.300;2023-04-03T15:14:11;22.60;40.70
12477;DHT22;6303;51.504;6.300;2023-04-03T15:16:39;22.60;40.70
12477;DHT22;6303;51.504;6.300;2023-04-03T15:19:06;22.60;40.80
12477;DHT22;6303;51.504;6.300;2023-04-03T15:21:33;22.60;40.80
12477;DHT22;6303;51.504;6.300;2023-04-03T15:24:00;22.60;40.70
12477;DHT22;6303;51.504;6.300;2023-04-03T15:26:29;22.60;40.60
12477;DHT22;6303;51.504;6.300;2023-04-03T15:28:56;22.60;40.70
12477;DHT22;6303;51.504;6.300;2023-04-03T15:31:24;22.60;40.70
12477;DHT22;6303;51.504;6.300;2023-04-03T15:33:51;22.50;40.50
12477;DHT22;6303;51.504;6.300;2023-04-03T15:36:18;22.50;40.60
12477;DHT22;6303;51.504;6.300;2023-04-03T15:38:45;22.50;40.60
12477;DHT22;6303;51.504;6.300;2023-04-03T15:41:13;22.50;40.40
12477;DHT22;6303;51.504;6.300;2023-04-03T15:43:41;22.50;40.40
12477;DHT22;6303;51.504;6.300;2023-04-03T15:46:08;22.50;40.60
12477;DHT22;6303;51.504;6.300;2023-04-03T15:48:36;22.50;40.60
12477;DHT22;6303;51.504;6.300;2023-04-03T15:51:03;22.50;40.70
12477;DHT22;6303;51.504;6.300;2023-04-03T15:53:31;22.50;40.50
12477;DHT22;6303;51.504;6.300;2023-04-03T15:55:58;22.50;40.50
12477;DHT22;6303;51.504;6.300;2023-04-03T15:58:25;22.40;40.60
12477;DHT22;6303;51.504;6.300;2023-04-03T16:00:54;22.40;40.70
12477;DHT22;6303;51.504;6.300;2023-04-03T16:03:21;22.40;40.80
12477;DHT22;6303;51.504;6.300;2023-04-03T16:05:50;22.40;40.80
12477;DHT22;6303;51.504;6.300;2023-04-03T16:08:17;22.40;40.90